Time;durP1;ratioP1;P1;durP2;ratioP2;P2;SDS_P1;SDS_P2;PMS_P1;PMS_P2;Temp;Humidity;BMP_temperature;BMP_pressure;BME280_temperature;BME280_humidity;BME280_pressure;Samples;Min_cycle;Max_cycle;Signal;HPM_P1;HPM_P2
2022/01/21 05:00:38;;;;;;;13.83;5.03;;;1.20;99.90;;;;;;5862297;23;20496;-77
2022/01/21 05:03:05;;;;;;;9.30;5.50;;;1.20;99.90;;;;;;4957188;28;20565;-77
2022/01/21 05:05:33;;;;;;;12.33;5.30;;;1.20;99.90;;;;;;4957004;29;20488;-77
2022/01/21 05:08:04;;;;;;;12.30;6.10;;;1.20;99.90;;;;;;4956989;29;20552;-77
2022/01/21 05:10:34;;;;;;;13.10;5.87;;;1.20;99.90;;;;;;4956708;28;20523;-77
2022/01/21 05:13:01;;;;;;;14.00;5.67;;;1.20;99.90;;;;;;4957405;29;20449;-76
2022/01/21 05:15:42;;;;;;;13.37;4.97;;;1.30;99.90;;;;;;4956743;29;20456;-76
2022/01/21 05:18:10;;;;;;;13.97;6.03;;;1.30;99.90;;;;;;4956081;29;20502;-77
2022/01/21 05:20:37;;;;;;;9.13;5.67;;;1.30;99.90;;;;;;4956700;28;20480;-77
2022/01/21 05:23:04;;;;;;;15.03;5.30;;;1.30;99.90;;;;;;4956545;29;20462;-77
2022/01/21 05:25:31;;;;;;;14.67;6.10;;;1.30;99.90;;;;;;4956529;29;20476;-77
2022/01/21 05:27:59;;;;;;;14.63;6.40;;;1.30;99.90;;;;;;4956578;29;20512;-77
2022/01/21 05:30:27;;;;;;;12.50;5.80;;;1.30;99.90;;;;;;4956232;28;20463;-77
2022/01/21 05:32:54;;;;;;;11.70;5.67;;;1.30;99.90;;;;;;4956529;29;20453;-77
2022/01/21 05:35:23;;;;;;;12.80;5.03;;;1.30;99.90;;;;;;4956488;29;20544;-77
2022/01/21 05:37:50;;;;;;;12.13;5.40;;;1.40;99.90;;;;;;4956081;28;20452;-77
2022/01/21 05:40:19;;;;;;;10.17;5.10;;;1.40;99.90;;;;;;4955979;28;20455;-77
2022/01/21 05:42:46;;;;;;;15.03;6.23;;;1.40;99.90;;;;;;4956379;29;20486;-77
2022/01/21 05:47:58;;;;;;;11.40;5.33;;;1.40;99.90;;;;;;4956278;29;20436;-77
2022/01/21 05:50:26;;;;;;;17.57;5.87;;;1.40;99.90;;;;;;4955874;28;20888;-77
2022/01/21 05:52:55;;;;;;;16.87;5.57;;;1.40;99.90;;;;;;4956008;29;21020;-77
2022/01/21 05:55:22;;;;;;;24.43;6.77;;;1.40;99.90;;;;;;4955885;29;20472;-75
2022/01/21 05:57:49;;;;;;;11.47;6.33;;;1.40;99.90;;;;;;4955918;29;20488;-75
2022/01/21 06:00:16;;;;;;;15.47;6.47;;;1.40;99.90;;;;;;4955465;28;20491;-77
2022/01/21 06:02:43;;;;;;;17.87;6.67;;;1.40;99.90;;;;;;4956098;29;20462;-76
2022/01/21 06:05:10;;;;;;;19.33;6.20;;;1.30;99.90;;;;;;4955624;29;20501;-75
2022/01/21 06:07:41;;;;;;;12.20;7.10;;;1.40;99.90;;;;;;4955466;29;20543;-75
2022/01/21 06:10:09;;;;;;;13.80;6.60;;;1.40;99.90;;;;;;4955046;29;20535;-75
2022/01/21 06:12:35;;;;;;;21.37;7.33;;;1.40;99.90;;;;;;4955620;28;20551;-75
2022/01/21 06:15:02;;;;;;;16.90;6.20;;;1.50;99.90;;;;;;4955844;29;20540;-76
2022/01/21 06:17:29;;;;;;;23.23;7.67;;;1.50;99.90;;;;;;4955732;29;20571;-75
2022/01/21 06:19:56;;;;;;;17.30;6.50;;;1.50;99.90;;;;;;4955797;29;20583;-76
2022/01/21 06:22:23;;;;;;;17.17;7.57;;;1.50;99.90;;;;;;4955117;28;20548;-75
2022/01/21 06:24:53;;;;;;;16.80;7.30;;;1.40;99.90;;;;;;4955355;29;21038;-75
2022/01/21 06:27:26;;;;;;;15.60;8.23;;;1.20;99.90;;;;;;4955275;29;21207;-75
2022/01/21 06:29:53;;;;;;;15.20;8.33;;;1.20;99.90;;;;;;4955009;28;20464;-76
2022/01/21 06:32:20;;;;;;;16.60;7.80;;;1.00;99.90;;;;;;4955292;28;20512;-76
2022/01/21 06:34:47;;;;;;;26.47;7.80;;;1.00;99.90;;;;;;4955447;29;20453;-76
2022/01/21 06:37:14;;;;;;;15.80;7.40;;;1.00;99.90;;;;;;4955307;29;20511;-76
2022/01/21 06:39:40;;;;;;;15.13;8.07;;;1.10;99.90;;;;;;4954694;29;20576;-75
2022/01/21 06:42:09;;;;;;;16.87;8.77;;;1.10;99.90;;;;;;4955036;28;20988;-76
2022/01/21 06:44:36;;;;;;;14.60;8.23;;;1.20;99.90;;;;;;4954552;29;20555;-76
2022/01/21 06:47:04;;;;;;;12.20;8.17;;;1.20;99.90;;;;;;4953281;29;20457;-76
2022/01/21 06:49:31;;;;;;;17.30;8.70;;;1.30;99.90;;;;;;4953696;28;20480;-76
2022/01/21 06:51:58;;;;;;;20.67;9.10;;;1.30;99.90;;;;;;4954664;28;20548;-75
2022/01/21 06:54:24;;;;;;;19.67;9.10;;;1.30;99.90;;;;;;4954703;29;20456;-76
2022/01/21 06:56:51;;;;;;;18.40;8.90;;;1.30;99.90;;;;;;4954812;28;20547;-76
2022/01/21 06:59:20;;;;;;;20.77;7.93;;;1.30;99.90;;;;;;4954326;29;21094;-76
2022/01/21 07:01:47;;;;;;;14.67;8.43;;;1.20;99.90;;;;;;4954500;28;20571;-76
2022/01/21 07:04:14;;;;;;;22.43;8.70;;;1.20;99.90;;;;;;4954842;29;20456;-77
2022/01/21 07:06:41;;;;;;;23.53;8.60;;;1.10;99.90;;;;;;4954800;29;20544;-77
2022/01/21 07:09:08;;;;;;;15.23;7.90;;;1.10;99.90;;;;;;4954434;29;20488;-77
2022/01/21 07:11:35;;;;;;;21.10;8.30;;;1.10;99.90;;;;;;4954493;28;20564;-77
2022/01/21 07:14:02;;;;;;;20.13;8.13;;;1.10;99.90;;;;;;4954311;29;20910;-77
2022/01/21 07:16:30;;;;;;;18.87;7.97;;;1.10;99.90;;;;;;4954666;29;20539;-77
2022/01/21 07:18:57;;;;;;;14.20;7.63;;;1.20;99.90;;;;;;4954585;28;20599;-77
2022/01/21 07:21:24;;;;;;;15.37;7.73;;;1.30;99.90;;;;;;4954424;28;20556;-77
2022/01/21 07:23:51;;;;;;;12.43;7.33;;;1.30;99.90;;;;;;4954295;29;20540;-77
2022/01/21 07:26:18;;;;;;;16.97;8.00;;;1.30;99.90;;;;;;4954080;29;20476;-77
2022/01/21 07:28:45;;;;;;;14.00;8.00;;;1.30;99.90;;;;;;4954051;29;20485;-77
2022/01/21 07:31:12;;;;;;;14.47;7.67;;;1.30;99.90;;;;;;4954026;28;20563;-77
2022/01/21 07:33:40;;;;;;;14.70;7.47;;;1.30;99.90;;;;;;4954302;29;20532;-77
2022/01/21 07:36:07;;;;;;;16.83;7.30;;;1.30;99.90;;;;;;4954111;28;20976;-76
2022/01/21 07:38:34;;;;;;;23.80;9.13;;;1.30;99.90;;;;;;4953929;29;20591;-77
2022/01/21 07:41:01;;;;;;;15.10;7.27;;;1.20;99.90;;;;;;4953716;28;20512;-77
2022/01/21 07:43:28;;;;;;;19.70;8.40;;;1.10;99.90;;;;;;4954006;29;20604;-77
2022/01/21 07:45:55;;;;;;;27.77;9.93;;;1.00;99.90;;;;;;4954057;29;20485;-77
2022/01/21 07:48:22;;;;;;;19.03;8.30;;;1.00;99.90;;;;;;4954036;28;20453;-77
2022/01/21 07:50:50;;;;;;;16.80;7.80;;;1.00;99.90;;;;;;4953769;28;20563;-77
2022/01/21 07:53:17;;;;;;;26.70;8.60;;;1.00;99.90;;;;;;4953887;29;20552;-77
2022/01/21 07:55:44;;;;;;;19.80;8.33;;;1.10;99.90;;;;;;4953640;29;20548;-77
2022/01/21 07:58:11;;;;;;;21.43;8.00;;;1.10;99.90;;;;;;4953777;29;20491;-77
2022/01/21 08:00:39;;;;;;;15.07;7.87;;;1.10;99.90;;;;;;4952459;28;20528;-77
2022/01/21 08:03:05;;;;;;;15.03;8.27;;;1.10;99.90;;;;;;4953743;29;20531;-77
2022/01/21 08:05:34;;;;;;;22.97;8.10;;;1.10;99.90;;;;;;4953894;29;20504;-77
2022/01/21 08:08:03;;;;;;;16.10;8.20;;;1.20;99.90;;;;;;4953778;29;20521;-77
2022/01/21 08:10:31;;;;;;;21.93;7.70;;;1.20;99.90;;;;;;4953518;28;20563;-77
2022/01/21 08:12:59;;;;;;;11.77;7.37;;;1.10;99.90;;;;;;4953702;29;20909;-77
2022/01/21 08:15:26;;;;;;;13.17;8.47;;;1.20;99.90;;;;;;4953843;29;20460;-77
2022/01/21 08:17:53;;;;;;;17.03;7.73;;;1.20;99.90;;;;;;4953781;29;20476;-77
2022/01/21 08:20:20;;;;;;;22.00;8.63;;;1.20;99.90;;;;;;4953239;28;20516;-77
2022/01/21 08:22:47;;;;;;;25.17;9.00;;;1.20;99.90;;;;;;4953408;29;20540;-77
2022/01/21 08:25:15;;;;;;;19.07;9.10;;;1.10;99.90;;;;;;4953599;29;21004;-77
2022/01/21 08:27:42;;;;;;;20.27;9.73;;;1.20;99.90;;;;;;4953721;29;20453;-77
2022/01/21 08:30:11;;;;;;;19.97;8.27;;;1.20;99.90;;;;;;4953455;29;20537;-77
2022/01/21 08:32:38;;;;;;;17.50;8.53;;;1.10;99.90;;;;;;4953546;29;20570;-77
2022/01/21 08:35:07;;;;;;;34.10;9.50;;;1.10;99.90;;;;;;4953476;29;20452;-77
2022/01/21 08:37:34;;;;;;;23.20;8.97;;;1.10;99.90;;;;;;4953480;29;20540;-77
2022/01/21 08:40:01;;;;;;;21.70;8.33;;;1.10;99.90;;;;;;4953258;29;20583;-77
2022/01/21 08:42:29;;;;;;;24.87;8.60;;;1.10;99.90;;;;;;4954838;28;20479;-77
2022/01/21 08:44:56;;;;;;;23.20;8.13;;;1.10;99.90;;;;;;4953821;28;20495;-77
2022/01/21 08:47:23;;;;;;;22.63;8.17;;;1.10;99.90;;;;;;4953519;28;20479;-77
2022/01/21 08:49:51;;;;;;;21.40;8.03;;;1.10;99.90;;;;;;4952924;29;20528;-77
2022/01/21 08:52:20;;;;;;;20.63;8.43;;;1.10;99.90;;;;;;4953400;28;20465;-77
2022/01/21 08:54:48;;;;;;;15.67;8.17;;;1.00;99.90;;;;;;4953657;29;20939;-76
2022/01/21 08:57:15;;;;;;;21.43;7.57;;;1.00;99.90;;;;;;4953517;29;20491;-78
2022/01/21 08:59:44;;;;;;;22.23;8.50;;;1.00;99.90;;;;;;4953120;29;20949;-78
2022/01/21 09:02:11;;;;;;;19.47;7.80;;;1.00;99.90;;;;;;4953154;28;20527;-78
2022/01/21 09:04:38;;;;;;;17.67;8.50;;;1.00;99.90;;;;;;4953357;29;20543;-78
2022/01/21 09:07:05;;;;;;;17.77;8.37;;;1.00;99.90;;;;;;4953578;29;20905;-78
2022/01/21 09:09:32;;;;;;;22.63;8.90;;;1.10;99.90;;;;;;4953455;29;20885;-78
2022/01/21 09:12:00;;;;;;;27.60;8.80;;;1.10;99.90;;;;;;4942136;29;20548;-78
2022/01/21 09:14:28;;;;;;;20.90;8.33;;;1.10;99.90;;;;;;4937811;29;20458;-75
2022/01/21 09:16:57;;;;;;;23.23;8.07;;;1.20;99.90;;;;;;4937660;29;20453;-77
2022/01/21 09:19:24;;;;;;;22.73;8.70;;;1.30;99.90;;;;;;4937741;29;20552;-77
2022/01/21 09:21:52;;;;;;;16.00;8.67;;;1.30;99.90;;;;;;4937395;29;20836;-77
2022/01/21 09:24:19;;;;;;;16.20;8.60;;;1.30;99.90;;;;;;4937488;29;20897;-76
2022/01/21 09:26:48;;;;;;;17.90;8.40;;;1.30;99.90;;;;;;4937475;29;20540;-77
2022/01/21 09:29:15;;;;;;;23.63;9.53;;;1.40;99.90;;;;;;4937252;29;20834;-78
2022/01/21 09:31:43;;;;;;;15.83;8.30;;;1.40;99.90;;;;;;4937482;29;20481;-77
2022/01/21 09:34:11;;;;;;;17.33;8.30;;;1.30;99.90;;;;;;4937972;29;20465;-78
2022/01/21 09:36:38;;;;;;;22.33;9.47;;;1.30;99.90;;;;;;4947723;29;20477;-78
2022/01/21 09:39:05;;;;;;;22.13;8.07;;;1.40;99.90;;;;;;4956623;29;20459;-78
2022/01/21 09:41:33;;;;;;;22.43;9.13;;;1.40;99.90;;;;;;4957155;29;20583;-78
2022/01/21 09:44:02;;;;;;;25.37;8.30;;;1.30;99.90;;;;;;4955197;29;20523;-78
2022/01/21 09:46:34;;;;;;;17.87;9.70;;;1.40;99.90;;;;;;4937707;29;20462;-78
2022/01/21 09:49:08;;;;;;;24.73;9.97;;;1.50;99.90;;;;;;4937458;29;20449;-78
2022/01/21 09:51:37;;;;;;;22.60;8.90;;;1.50;99.90;;;;;;4937676;29;21029;-78
2022/01/21 09:54:06;;;;;;;23.60;10.57;;;1.50;99.90;;;;;;4937488;29;20529;-78
2022/01/21 09:56:38;;;;;;;18.83;9.07;;;1.50;99.90;;;;;;4953133;29;20484;-78
2022/01/21 09:59:05;;;;;;;15.77;8.60;;;1.50;99.90;;;;;;4955990;29;20535;-78
2022/01/21 10:01:34;;;;;;;24.43;8.60;;;1.50;99.90;;;;;;4956101;29;20595;-78
2022/01/21 10:04:02;;;;;;;23.43;9.10;;;1.50;99.90;;;;;;4956518;29;20532;-78
2022/01/21 10:06:30;;;;;;;27.17;10.03;;;1.50;99.90;;;;;;4953167;29;20548;-78
2022/01/21 10:08:58;;;;;;;19.10;8.80;;;1.60;99.90;;;;;;4936438;29;20972;-78
2022/01/21 10:11:25;;;;;;;21.83;8.60;;;1.60;99.90;;;;;;4941779;29;20556;-78
2022/01/21 10:13:55;;;;;;;25.30;9.77;;;1.60;99.90;;;;;;4955894;29;20953;-78
2022/01/21 10:16:22;;;;;;;19.27;9.20;;;1.60;99.90;;;;;;4955990;28;20972;-78
2022/01/21 10:19:07;;;;;;;21.50;9.57;;;1.60;99.90;;;;;;4956069;29;20464;-78
2022/01/21 10:21:37;;;;;;;25.17;9.90;;;1.60;99.90;;;;;;4947306;28;20997;-78
2022/01/21 10:24:08;;;;;;;19.53;9.33;;;1.60;99.90;;;;;;4941096;28;20449;-78
2022/01/21 10:26:45;;;;;;;24.07;8.67;;;1.60;99.90;;;;;;4936908;29;20544;-78
2022/01/21 10:29:13;;;;;;;15.17;9.20;;;1.60;99.90;;;;;;4936387;29;20457;-78
2022/01/21 10:31:52;;;;;;;25.07;9.17;;;1.60;99.90;;;;;;4936773;29;20477;-78
2022/01/21 10:34:25;;;;;;;28.03;9.83;;;1.60;99.90;;;;;;4937222;29;20552;-79
2022/01/21 10:36:55;;;;;;;14.90;9.03;;;1.60;99.90;;;;;;4937322;29;20537;-79
2022/01/21 10:39:32;;;;;;;20.30;9.63;;;1.70;99.90;;;;;;4936365;29;20464;-78
2022/01/21 10:42:00;;;;;;;21.80;8.57;;;1.60;99.90;;;;;;4942861;29;20504;-78
2022/01/21 10:44:30;;;;;;;110.67;45.63;;;1.60;99.90;;;;;;4955439;29;20483;-78
2022/01/21 10:47:06;;;;;;;28.80;13.70;;;1.70;99.90;;;;;;4955256;29;20453;-78
2022/01/21 10:49:35;;;;;;;36.93;21.13;;;1.80;99.90;;;;;;4952143;29;21004;-79
2022/01/21 10:52:03;;;;;;;29.00;14.20;;;1.80;99.90;;;;;;4955275;29;20472;-78
2022/01/21 10:54:32;;;;;;;19.93;8.60;;;1.90;99.90;;;;;;4955188;29;20482;-78
2022/01/21 10:57:13;;;;;;;29.70;17.67;;;1.90;99.90;;;;;;4952070;29;20982;-78
2022/01/21 10:59:52;;;;;;;22.03;10.53;;;1.90;99.90;;;;;;4936114;29;20537;-78
2022/01/21 11:02:36;;;;;;;29.93;10.67;;;1.90;99.90;;;;;;4936131;29;20572;-79
2022/01/21 11:05:08;;;;;;;24.10;8.13;;;2.00;99.90;;;;;;4936424;29;20434;-78
2022/01/21 11:08:04;;;;;;;16.27;7.87;;;2.00;99.90;;;;;;4936660;29;20501;-78
2022/01/21 11:10:46;;;;;;;17.20;7.37;;;2.00;99.90;;;;;;4946836;29;20474;-80
2022/01/21 11:13:33;;;;;;;20.95;8.15;;;2.00;99.90;;;;;;4969371;23;20457;-78
2022/01/21 11:16:06;;;;;;;19.73;7.77;;;2.10;99.90;;;;;;4945103;29;20532;-77
2022/01/21 11:18:33;;;;;;;18.03;8.27;;;2.10;99.90;;;;;;4933672;29;20545;-77
2022/01/21 11:21:06;;;;;;;20.73;8.10;;;2.10;99.90;;;;;;4934812;29;20500;-77
2022/01/21 11:23:35;;;;;;;22.37;8.37;;;2.10;99.90;;;;;;4931154;29;20479;-76
2022/01/21 11:26:08;;;;;;;18.30;7.87;;;2.10;99.90;;;;;;4916145;29;20625;-76
2022/01/21 11:28:40;;;;;;;15.47;6.53;;;2.10;99.90;;;;;;4916447;29;20463;-75
2022/01/21 11:31:08;;;;;;;19.50;7.80;;;2.10;99.90;;;;;;4916194;29;20459;-76
2022/01/21 11:33:36;;;;;;;30.03;10.27;;;2.20;99.90;;;;;;4916250;29;20478;-76
2022/01/21 11:36:05;;;;;;;19.80;8.67;;;2.20;99.90;;;;;;4915909;29;20494;-76
2022/01/21 11:38:36;;;;;;;22.80;8.73;;;2.20;99.90;;;;;;4928795;29;20461;-76
2022/01/21 11:41:06;;;;;;;17.67;6.90;;;2.30;99.90;;;;;;4935538;29;20477;-76
2022/01/21 11:43:34;;;;;;;19.17;8.20;;;2.30;99.90;;;;;;4935358;29;20515;-78
2022/01/21 11:46:17;;;;;;;23.03;9.70;;;2.30;99.90;;;;;;4935461;29;20521;-77
2022/01/21 11:48:52;;;;;;;21.20;8.70;;;2.30;99.90;;;;;;4935182;29;20453;-76
2022/01/21 11:51:26;;;;;;;22.83;7.70;;;2.40;99.90;;;;;;4935040;29;20469;-76
2022/01/21 11:53:56;;;;;;;16.67;8.40;;;2.40;99.90;;;;;;4935037;29;20555;-76
2022/01/21 11:56:35;;;;;;;15.57;6.47;;;2.40;99.90;;;;;;4935037;29;20965;-76
2022/01/21 11:59:23;;;;;;;19.90;6.90;;;2.30;99.90;;;;;;4935249;29;20477;-76
2022/01/21 12:01:52;;;;;;;28.57;7.70;;;2.30;99.90;;;;;;4934867;29;20573;-76
2022/01/21 12:04:40;;;;;;;20.10;7.90;;;2.30;99.90;;;;;;4918099;29;21061;-76
2022/01/21 12:07:55;;;;;;;16.20;7.57;;;2.30;99.90;;;;;;4915945;29;20821;-76
2022/01/21 12:10:31;;;;;;;18.90;6.80;;;2.40;99.90;;;;;;4918522;29;20501;-78
2022/01/21 12:13:04;;;;;;;22.33;7.00;;;2.40;99.90;;;;;;4934067;29;20541;-77
2022/01/21 12:19:20;;;;;;;28.53;8.83;;;2.50;99.90;;;;;;4933949;29;20450;-77
2022/01/21 12:21:50;;;;;;;20.57;7.07;;;2.50;99.90;;;;;;4933584;29;21001;-76
2022/01/21 12:24:37;;;;;;;29.87;8.57;;;2.60;99.90;;;;;;4934100;29;20490;-76
2022/01/21 12:27:09;;;;;;;20.80;7.30;;;2.50;99.90;;;;;;4933635;29;20540;-77
2022/01/21 12:29:37;;;;;;;18.60;7.20;;;2.60;99.90;;;;;;4933822;29;20485;-76
2022/01/21 12:32:13;;;;;;;14.00;7.13;;;2.60;99.90;;;;;;4933739;29;20454;-77
2022/01/21 12:35:14;;;;;;;11.93;5.30;;;2.60;99.90;;;;;;4933979;29;20516;-76
2022/01/21 12:41:24;;;;;;;13.13;6.40;;;2.60;99.90;;;;;;4932629;29;20490;-76
2022/01/21 12:43:55;;;;;;;14.77;5.17;;;2.60;99.90;;;;;;4933577;29;21068;-76
2022/01/21 12:46:30;;;;;;;17.07;5.10;;;2.70;99.90;;;;;;4934616;29;20453;-76
2022/01/21 12:48:59;;;;;;;12.73;6.37;;;2.60;99.90;;;;;;4937119;29;20450;-77
2022/01/21 12:51:55;;;;;;;17.47;5.77;;;2.60;99.90;;;;;;4937565;29;20834;-76
2022/01/21 12:57:08;;;;;;;20.57;6.20;;;2.60;99.90;;;;;;4928938;29;20445;-76
2022/01/21 12:59:37;;;;;;;16.50;6.10;;;2.60;99.90;;;;;;4938195;29;20516;-77
2022/01/21 13:02:06;;;;;;;12.40;5.30;;;2.50;99.90;;;;;;4937846;29;20580;-76
2022/01/21 13:04:51;;;;;;;23.60;6.37;;;2.50;99.90;;;;;;4936758;29;20485;-76
2022/01/21 13:07:27;;;;;;;43.67;23.63;;;2.50;99.90;;;;;;4930646;29;21008;-79
2022/01/21 13:10:13;;;;;;;24.50;5.90;;;2.50;99.90;;;;;;4937717;29;20938;-76
2022/01/21 13:12:59;;;;;;;14.83;6.47;;;2.60;99.90;;;;;;4938022;29;20469;-77
2022/01/21 13:15:37;;;;;;;16.30;5.80;;;2.70;99.90;;;;;;4936993;29;20485;-76
2022/01/21 13:18:05;;;;;;;15.93;7.80;;;2.70;99.90;;;;;;4937774;29;20457;-77
2022/01/21 13:20:33;;;;;;;19.70;8.70;;;2.80;99.90;;;;;;4937391;29;20495;-76
2022/01/21 13:23:01;;;;;;;18.67;6.20;;;2.80;99.90;;;;;;4937650;29;20533;-79
2022/01/21 13:25:31;;;;;;;12.20;4.70;;;2.90;99.90;;;;;;4937853;29;20556;-76
2022/01/21 13:28:01;;;;;;;17.60;6.17;;;2.90;99.90;;;;;;4922041;29;20455;-76
2022/01/21 13:30:31;;;;;;;15.40;5.77;;;2.90;99.90;;;;;;4937324;29;20478;-75
2022/01/21 13:33:00;;;;;;;20.43;7.13;;;2.90;99.90;;;;;;4937630;29;20489;-76
2022/01/21 13:35:28;;;;;;;13.40;6.80;;;3.00;99.90;;;;;;4937164;29;20548;-76
2022/01/21 13:38:05;;;;;;;12.87;5.10;;;3.00;99.90;;;;;;4937582;29;20458;-76
2022/01/21 13:40:36;;;;;;;13.93;5.33;;;2.90;99.90;;;;;;4937460;29;20602;-76
2022/01/21 13:43:08;;;;;;;22.43;8.27;;;2.90;99.90;;;;;;4937638;29;20449;-76
2022/01/21 13:45:37;;;;;;;27.53;15.20;;;2.90;99.90;;;;;;4937130;29;20899;-76
2022/01/21 13:48:06;;;;;;;13.67;4.87;;;2.90;99.90;;;;;;4937304;29;20532;-76
2022/01/21 13:50:33;;;;;;;13.30;5.60;;;2.90;99.90;;;;;;4936933;29;20541;-75
2022/01/21 13:53:02;;;;;;;11.30;4.90;;;2.90;99.90;;;;;;4937110;29;20956;-76
2022/01/21 13:55:32;;;;;;;21.63;6.67;;;2.90;99.90;;;;;;4936934;29;20505;-76
2022/01/21 13:58:02;;;;;;;12.00;4.90;;;2.90;99.90;;;;;;4935947;29;20442;-76
2022/01/21 14:00:32;;;;;;;19.53;5.80;;;2.90;99.90;;;;;;4936552;29;20553;-76
2022/01/21 14:03:12;;;;;;;32.50;16.53;;;2.80;99.90;;;;;;4937192;29;20450;-77
2022/01/21 14:05:44;;;;;;;18.20;7.37;;;2.90;99.90;;;;;;4937233;29;20465;-76
2022/01/21 14:08:12;;;;;;;18.83;10.40;;;2.90;99.90;;;;;;4936848;29;20532;-76
2022/01/21 14:10:38;;;;;;;17.80;7.30;;;2.80;99.90;;;;;;4936635;29;20541;-76
2022/01/21 14:13:06;;;;;;;20.37;5.77;;;2.80;99.90;;;;;;4936301;29;20540;-76
2022/01/21 14:15:33;;;;;;;20.13;5.70;;;2.90;99.90;;;;;;4936345;29;21029;-77
2022/01/21 14:18:00;;;;;;;17.40;7.13;;;2.90;99.90;;;;;;4936462;29;20489;-77
2022/01/21 14:20:31;;;;;;;20.57;7.37;;;2.90;99.90;;;;;;4935991;29;20545;-76
2022/01/21 14:22:58;;;;;;;16.63;5.53;;;3.00;99.90;;;;;;4936267;29;20461;-78
2022/01/21 14:25:26;;;;;;;28.17;9.80;;;3.00;99.90;;;;;;4935988;29;20561;-76
2022/01/21 14:27:53;;;;;;;24.00;6.70;;;3.00;99.90;;;;;;4936293;29;20521;-77
2022/01/21 14:30:23;;;;;;;21.27;6.70;;;3.00;99.90;;;;;;4936132;29;20544;-76
2022/01/21 14:32:51;;;;;;;24.30;11.30;;;3.00;99.90;;;;;;4936138;29;20525;-76
2022/01/21 14:35:25;;;;;;;19.77;7.43;;;3.00;99.90;;;;;;4936087;29;20545;-76
2022/01/21 14:37:56;;;;;;;16.97;7.53;;;2.90;99.90;;;;;;4935888;29;20554;-76
2022/01/21 14:40:25;;;;;;;13.60;7.00;;;3.00;99.90;;;;;;4935873;29;20536;-77
2022/01/21 14:43:05;;;;;;;13.57;6.10;;;3.00;99.90;;;;;;4935884;29;21033;-76
2022/01/21 14:45:32;;;;;;;17.40;5.80;;;2.90;99.90;;;;;;4935904;29;20545;-76
2022/01/21 14:48:12;;;;;;;14.80;6.53;;;2.90;99.90;;;;;;4935551;29;20453;-77
2022/01/21 14:50:39;;;;;;;19.23;8.87;;;2.90;99.90;;;;;;4935017;29;20532;-78
2022/01/21 14:53:10;;;;;;;15.57;6.97;;;3.00;99.90;;;;;;4934694;29;20446;-76
2022/01/21 14:55:38;;;;;;;17.83;5.43;;;3.00;99.90;;;;;;4935685;29;20454;-78
2022/01/21 14:58:11;;;;;;;10.23;4.13;;;3.00;99.90;;;;;;4935637;29;20980;-76
2022/01/21 15:00:40;;;;;;;8.80;3.80;;;3.00;99.90;;;;;;4935029;29;20536;-77
2022/01/21 15:03:16;;;;;;;16.60;4.97;;;3.00;99.90;;;;;;4935408;29;21020;-76
2022/01/21 15:05:45;;;;;;;13.43;4.20;;;3.00;99.90;;;;;;4935700;29;20532;-76
2022/01/21 15:08:25;;;;;;;11.20;5.00;;;3.00;99.90;;;;;;4935468;29;20458;-76
2022/01/21 15:11:02;;;;;;;13.20;4.43;;;3.00;99.90;;;;;;4934805;29;20549;-77
2022/01/21 15:16:17;;;;;;;10.00;4.33;;;2.90;99.90;;;;;;4935326;29;20457;-76
2022/01/21 15:18:45;;;;;;;13.30;4.20;;;3.00;99.90;;;;;;4935140;29;21021;-76
2022/01/21 15:21:17;;;;;;;10.80;4.27;;;3.00;99.90;;;;;;4934942;29;20493;-76
2022/01/21 15:23:48;;;;;;;16.60;4.20;;;3.00;99.90;;;;;;4934822;29;20560;-77
2022/01/21 15:26:17;;;;;;;17.30;5.40;;;2.90;99.90;;;;;;4935208;29;20970;-76
2022/01/21 15:28:44;;;;;;;11.73;5.30;;;2.90;99.90;;;;;;4935234;29;20446;-76
2022/01/21 15:31:11;;;;;;;14.50;7.23;;;2.90;99.90;;;;;;4934977;29;20533;-76
2022/01/21 15:33:38;;;;;;;22.90;7.73;;;2.90;99.90;;;;;;4935033;29;20509;-76
2022/01/21 15:36:06;;;;;;;24.30;10.93;;;2.90;99.90;;;;;;4934827;29;20458;-78
2022/01/21 15:38:34;;;;;;;24.33;9.43;;;2.80;99.90;;;;;;4934855;29;20458;-76
2022/01/21 15:41:02;;;;;;;17.93;6.03;;;2.80;99.90;;;;;;4934952;29;20493;-76
2022/01/21 15:43:29;;;;;;;14.70;5.57;;;2.80;99.90;;;;;;4934849;29;21062;-76
2022/01/21 15:45:56;;;;;;;14.80;6.00;;;2.80;99.90;;;;;;4934736;29;20964;-76
2022/01/21 15:48:27;;;;;;;15.23;5.13;;;2.70;99.90;;;;;;4934852;29;20478;-76
2022/01/21 15:50:55;;;;;;;12.53;4.43;;;2.80;99.90;;;;;;4934584;29;20466;-76
2022/01/21 15:53:22;;;;;;;13.57;4.47;;;2.80;99.90;;;;;;4934997;29;20454;-76
2022/01/21 15:55:49;;;;;;;8.13;4.50;;;2.80;99.90;;;;;;4934614;29;20498;-78
2022/01/21 15:58:18;;;;;;;11.53;4.67;;;2.80;99.90;;;;;;4934870;29;20485;-76
2022/01/21 16:00:45;;;;;;;8.37;4.17;;;2.80;99.90;;;;;;4934415;29;20509;-76
2022/01/21 16:03:12;;;;;;;10.50;4.57;;;2.80;99.90;;;;;;4934261;29;20533;-77
2022/01/21 16:05:39;;;;;;;25.80;7.90;;;2.80;99.90;;;;;;4934534;29;20822;-76
2022/01/21 16:08:06;;;;;;;20.50;8.30;;;2.80;99.90;;;;;;4934516;29;20449;-78
2022/01/21 16:10:33;;;;;;;13.93;5.70;;;2.80;99.90;;;;;;4934384;29;20454;-76
2022/01/21 16:13:00;;;;;;;16.00;5.93;;;2.80;99.90;;;;;;4934591;29;20454;-76
2022/01/21 16:15:29;;;;;;;13.27;5.00;;;2.80;99.90;;;;;;4934249;29;20513;-76
2022/01/21 16:17:55;;;;;;;11.13;6.10;;;2.80;99.90;;;;;;4934639;29;20485;-76
2022/01/21 16:20:22;;;;;;;10.87;5.17;;;2.80;99.90;;;;;;4934747;29;20899;-76
2022/01/21 16:22:49;;;;;;;10.80;5.23;;;2.70;99.90;;;;;;4938607;29;20537;-76
2022/01/21 16:25:16;;;;;;;17.73;6.40;;;2.70;99.90;;;;;;4935674;29;21006;-75
2022/01/21 16:27:45;;;;;;;10.13;5.17;;;2.70;99.90;;;;;;4930864;29;20454;-76
2022/01/21 16:30:13;;;;;;;11.07;4.83;;;2.70;99.90;;;;;;4927752;29;20470;-75
2022/01/21 16:32:42;;;;;;;14.67;6.23;;;2.80;99.90;;;;;;4936352;29;20520;-75
2022/01/21 16:35:10;;;;;;;14.37;5.90;;;2.80;99.90;;;;;;4938497;29;20560;-77
2022/01/21 16:37:38;;;;;;;9.83;5.20;;;2.80;99.90;;;;;;4938298;29;20462;-77
2022/01/21 16:40:07;;;;;;;12.93;6.03;;;2.90;99.90;;;;;;4938209;29;20464;-77
2022/01/21 16:42:36;;;;;;;13.13;5.53;;;2.90;99.90;;;;;;4938075;29;20584;-77
2022/01/21 16:45:05;;;;;;;18.03;6.17;;;2.90;99.90;;;;;;4937759;29;20588;-77
2022/01/21 16:47:32;;;;;;;10.13;5.90;;;2.80;99.90;;;;;;4938115;29;20870;-77
2022/01/21 16:50:00;;;;;;;18.00;6.30;;;2.90;99.90;;;;;;4937877;29;20508;-77
2022/01/21 16:52:28;;;;;;;12.60;5.73;;;2.90;99.90;;;;;;4938044;29;20544;-77
2022/01/21 16:54:54;;;;;;;12.60;4.53;;;2.90;99.90;;;;;;4937988;29;20524;-75
2022/01/21 16:57:26;;;;;;;15.27;5.33;;;2.90;99.90;;;;;;4937888;29;21210;-75
2022/01/21 16:59:53;;;;;;;13.93;5.10;;;2.90;99.90;;;;;;4937646;29;20468;-75
2022/01/21 17:02:20;;;;;;;14.13;5.43;;;2.80;99.90;;;;;;4919445;29;20490;-76
2022/01/21 17:04:49;;;;;;;9.90;5.10;;;2.80;99.90;;;;;;4919495;29;20479;-75
2022/01/21 17:07:18;;;;;;;11.43;5.67;;;2.80;99.90;;;;;;4919256;29;20469;-76
2022/01/21 17:09:45;;;;;;;14.90;5.00;;;2.90;99.90;;;;;;4919273;29;20492;-75
2022/01/21 17:12:12;;;;;;;12.20;5.00;;;2.90;99.90;;;;;;4919140;29;20454;-76
2022/01/21 17:14:43;;;;;;;17.93;5.83;;;2.90;99.90;;;;;;4953328;23;20991;-74
2022/01/21 17:17:10;;;;;;;14.17;5.70;;;2.90;99.90;;;;;;4955507;29;20875;-74
2022/01/21 17:19:37;;;;;;;12.10;5.80;;;2.90;99.90;;;;;;4955754;29;20488;-74
2022/01/21 17:22:04;;;;;;;17.73;7.50;;;2.90;99.90;;;;;;4956605;29;20516;-74
2022/01/21 17:24:33;;;;;;;10.73;6.17;;;3.00;99.90;;;;;;4956239;28;20508;-74
2022/01/21 17:27:00;;;;;;;19.23;7.77;;;3.00;99.90;;;;;;4957041;29;20503;-74
2022/01/21 17:29:27;;;;;;;10.90;6.90;;;3.00;99.90;;;;;;4956315;29;20547;-74
2022/01/21 17:31:54;;;;;;;16.33;7.30;;;3.00;99.90;;;;;;4956254;28;20577;-74
2022/01/21 17:34:21;;;;;;;18.63;7.00;;;3.00;99.90;;;;;;4948177;29;20518;-75
2022/01/21 17:36:48;;;;;;;20.20;6.30;;;3.00;99.90;;;;;;4945013;29;20485;-74
2022/01/21 17:39:15;;;;;;;14.63;6.40;;;3.00;99.90;;;;;;4937097;29;20549;-74
2022/01/21 17:41:43;;;;;;;16.60;6.90;;;3.00;99.90;;;;;;4937444;29;20489;-75
2022/01/21 17:44:13;;;;;;;17.20;6.70;;;3.00;99.90;;;;;;4937496;29;20461;-74
2022/01/21 17:46:40;;;;;;;14.33;7.23;;;2.90;99.90;;;;;;4937255;29;20533;-74
2022/01/21 17:49:07;;;;;;;12.00;6.90;;;2.90;99.90;;;;;;4937107;29;20462;-74
2022/01/21 17:51:35;;;;;;;19.43;7.67;;;3.00;99.90;;;;;;4936832;29;20548;-74
2022/01/21 17:54:02;;;;;;;16.47;7.70;;;3.00;99.90;;;;;;4937252;29;20540;-74
2022/01/21 17:56:29;;;;;;;24.50;7.40;;;2.90;99.90;;;;;;4936965;29;20958;-74
2022/01/21 17:58:57;;;;;;;20.60;7.77;;;2.90;99.90;;;;;;4936735;29;20816;-74
2022/01/21 18:01:24;;;;;;;17.57;7.47;;;2.90;99.90;;;;;;4936855;29;20950;-74
2022/01/21 18:03:51;;;;;;;19.47;7.23;;;2.90;99.90;;;;;;4936955;29;21097;-74
2022/01/21 18:06:18;;;;;;;17.20;7.57;;;2.90;99.90;;;;;;4936644;29;20482;-75
2022/01/21 18:08:52;;;;;;;13.20;6.60;;;2.90;99.90;;;;;;4942631;29;20469;-75
2022/01/21 18:11:24;;;;;;;20.07;6.40;;;2.80;99.90;;;;;;4955491;29;20821;-76
2022/01/21 18:13:51;;;;;;;16.90;7.07;;;2.80;99.90;;;;;;4956406;29;20488;-74